createdAt,value
2022-08-18T00:01:06.286Z,100102.22
2022-08-18T00:03:56.516Z,100098.94
2022-08-18T00:06:20.276Z,100090.94
2022-08-18T00:08:47.062Z,100090.84
2022-08-18T00:11:14.085Z,100071.97
2022-08-18T00:13:41.095Z,100091.66
2022-08-18T00:16:08.038Z,100083.34
2022-08-18T00:18:34.819Z,100081.22
2022-08-18T00:21:02.358Z,100075.31
2022-08-18T00:23:31.309Z,100077.69
2022-08-18T00:25:59.585Z,100078.69
2022-08-18T00:28:26.593Z,100075.31
2022-08-18T00:30:54.134Z,100071.53
2022-08-18T00:33:21.660Z,100070.41
2022-08-18T00:35:49.082Z,100071.16
2022-08-18T00:38:24.256Z,100070.91
2022-08-18T00:40:53.769Z,100066.66
2022-08-18T00:43:29.963Z,100064.59
2022-08-18T00:45:56.860Z,100056.94
2022-08-18T00:48:24.704Z,100061.84
2022-08-18T00:50:54.550Z,100064.84
2022-08-18T00:53:29.596Z,100059.41
2022-08-18T00:55:59.488Z,100061.78
2022-08-18T00:58:49.132Z,100058.81
2022-08-18T01:01:17.469Z,100048.63
2022-08-18T01:03:44.634Z,100053.44
2022-08-18T01:06:33.012Z,100044.72
2022-08-18T01:08:59.909Z,100035.38
2022-08-18T01:11:26.747Z,100027.53
2022-08-18T01:14:03.509Z,100016.59
2022-08-18T01:16:53.212Z,100031.88
2022-08-18T01:19:42.623Z,100043.72
2022-08-18T01:22:33.904Z,100032.19
2022-08-18T01:25:19.711Z,100024.03
2022-08-18T01:27:47.156Z,100031.19
2022-08-18T01:30:18.280Z,100017.56
2022-08-18T01:32:46.116Z,100014.88
2022-08-18T01:35:15.539Z,100014.75
2022-08-18T01:37:44.126Z,100019.44
2022-08-18T01:41:22.150Z,100022.94
2022-08-18T01:43:03.673Z,100012.00
2022-08-18T01:45:33.419Z,100015.44
2022-08-18T01:48:00.681Z,100002.22
2022-08-18T01:50:27.999Z,99997.97
2022-08-18T01:52:54.842Z,99992.41
2022-08-18T01:55:22.041Z,99990.97
2022-08-18T01:57:48.987Z,99985.25
2022-08-18T02:00:17.647Z,99977.41
2022-08-18T02:02:44.622Z,99981.81
2022-08-18T02:05:16.535Z,99972.72
2022-08-18T02:07:43.414Z,99969.13
2022-08-18T02:10:12.494Z,99960.75
2022-08-18T02:12:43.841Z,99960.75
2022-08-18T02:15:11.841Z,99959.22
2022-08-18T02:17:40.764Z,99958.94
2022-08-18T02:20:09.885Z,99960.50
2022-08-18T02:22:36.993Z,99962.53
2022-08-18T02:25:05.032Z,99952.41
2022-08-18T02:27:34.298Z,99942.47
2022-08-18T02:30:02.206Z,99951.38
2022-08-18T02:32:29.482Z,99943.31
2022-08-18T02:34:56.419Z,99935.28
2022-08-18T02:37:23.429Z,99916.56
2022-08-18T02:39:50.464Z,99918.44
2022-08-18T02:42:17.596Z,99905.34
2022-08-18T02:44:44.874Z,99909.03
2022-08-18T02:47:11.891Z,99901.28
2022-08-18T02:49:39.102Z,99898.66
2022-08-18T02:52:06.967Z,99907.53
2022-08-18T02:54:35.223Z,99909.19
2022-08-18T02:57:06.965Z,99899.91
2022-08-18T02:59:34.657Z,99899.38
2022-08-18T03:02:01.415Z,99899.13
2022-08-18T03:04:30.578Z,99906.38
2022-08-18T03:07:00.541Z,99897.03
2022-08-18T03:09:28.613Z,99893.69
2022-08-18T03:11:55.736Z,99900.53
2022-08-18T03:14:22.565Z,99898.81
2022-08-18T03:16:53.356Z,99902.78
2022-08-18T03:19:30.839Z,99895.59
2022-08-18T03:22:02.721Z,99888.84
2022-08-18T03:24:32.508Z,99893.34
2022-08-18T03:27:01.721Z,99890.69
2022-08-18T03:29:32.375Z,99893.16
2022-08-18T03:32:00.557Z,99890.63
2022-08-18T03:34:27.534Z,99869.78
2022-08-18T03:36:54.489Z,99856.81
2022-08-18T03:39:23.707Z,99859.81
2022-08-18T03:41:59.772Z,99858.19
2022-08-18T03:44:30.837Z,99850.66
2022-08-18T03:46:58.374Z,99851.31
2022-08-18T03:49:26.046Z,99838.50
2022-08-18T03:51:53.075Z,99830.81
2022-08-18T03:54:19.832Z,99834.19
2022-08-18T03:56:47.996Z,99822.66
2022-08-18T03:59:20.869Z,99815.47
2022-08-18T04:01:49.250Z,99815.41
2022-08-18T04:04:20.145Z,99811.25
2022-08-18T04:06:57.076Z,99814.47
2022-08-18T04:09:25.265Z,99810.28
2022-08-18T04:11:52.528Z,99804.25
2022-08-18T04:14:22.021Z,99800.44
2022-08-18T04:16:49.272Z,99808.63
2022-08-18T04:19:27.202Z,99795.97
2022-08-18T04:21:56.838Z,99788.59
2022-08-18T04:24:26.130Z,99780.00
2022-08-18T04:26:53.735Z,99787.34
2022-08-18T04:29:21.884Z,99773.78
2022-08-18T04:31:50.394Z,99771.13
2022-08-18T04:34:18.489Z,99772.00
2022-08-18T04:36:45.413Z,99760.09
2022-08-18T04:39:13.627Z,99759.91
2022-08-18T04:41:43.649Z,99749.69
2022-08-18T04:44:11.885Z,99757.00
2022-08-18T04:46:41.732Z,99759.69
2022-08-18T04:49:10.764Z,99752.47
2022-08-18T04:52:34.497Z,99755.63
2022-08-18T04:54:28.960Z,99758.22
2022-08-18T04:56:55.858Z,99756.44
2022-08-18T04:59:22.722Z,99760.38
2022-08-18T05:01:49.603Z,99755.13
2022-08-18T05:04:17.617Z,99751.31
2022-08-18T05:06:45.303Z,99756.31
2022-08-18T05:09:16.738Z,99759.81
2022-08-18T05:11:50.797Z,99745.56
2022-08-18T05:14:18.291Z,99744.19
2022-08-18T05:16:48.625Z,99736.09
2022-08-18T05:19:23.288Z,99730.22
2022-08-18T05:22:00.068Z,99730.47
2022-08-18T05:24:36.827Z,99726.66
2022-08-18T05:27:04.660Z,99719.38
2022-08-18T05:29:41.895Z,99711.00
2022-08-18T05:32:30.289Z,99701.03
2022-08-18T05:35:15.366Z,99702.94
2022-08-18T05:37:42.614Z,99689.75
2022-08-18T05:40:11.578Z,99683.06
2022-08-18T05:42:40.374Z,99700.50
2022-08-18T05:45:11.446Z,99708.72
2022-08-18T05:47:38.604Z,99707.38
2022-08-18T05:50:10.576Z,99700.25
2022-08-18T05:52:41.914Z,99702.13
2022-08-18T05:55:47.213Z,99694.34
2022-08-18T05:58:33.409Z,99694.66
2022-08-18T06:01:22.594Z,99690.91
2022-08-18T06:04:14.668Z,99693.63
2022-08-18T06:06:47.001Z,99687.44
2022-08-18T06:09:23.670Z,99678.13
2022-08-18T06:11:50.934Z,99680.28
2022-08-18T06:14:17.926Z,99670.03
2022-08-18T06:17:03.494Z,99660.31
2022-08-18T06:20:10.316Z,99665.28
2022-08-18T06:22:57.452Z,99656.38
2022-08-18T06:26:02.894Z,99651.75
2022-08-18T06:28:43.863Z,99647.44
2022-08-18T06:31:17.980Z,99653.91
2022-08-18T06:33:58.970Z,99641.59
2022-08-18T06:36:26.507Z,99636.66
2022-08-18T06:38:56.533Z,99638.81
2022-08-18T06:41:40.473Z,99635.03
2022-08-18T06:44:30.308Z,99646.44
2022-08-18T06:47:21.220Z,99643.47
2022-08-18T06:50:13.787Z,99639.41
2022-08-18T06:52:53.670Z,99637.50
2022-08-18T06:55:34.044Z,99629.09
2022-08-18T06:58:07.745Z,99634.22
2022-08-18T07:00:36.649Z,99631.03
2022-08-18T07:03:08.538Z,99618.63
2022-08-18T07:05:37.209Z,99618.63
2022-08-18T07:08:14.875Z,99618.34
2022-08-18T07:10:47.784Z,99615.41
2022-08-18T07:13:18.158Z,99620.03
2022-08-18T07:15:45.888Z,99616.88
2022-08-18T07:18:14.683Z,99618.19
2022-08-18T07:20:48.193Z,99615.78
2022-08-18T07:23:25.649Z,99620.66
2022-08-18T07:26:00.774Z,99612.53
2022-08-18T07:28:45.096Z,99613.09
2022-08-18T07:31:28.172Z,99610.06
2022-08-18T07:34:05.130Z,99609.53
2022-08-18T07:36:40.110Z,99607.38
2022-08-18T07:39:25.327Z,99601.44
2022-08-18T07:41:57.501Z,99598.47
2022-08-18T07:44:47.164Z,99596.34
2022-08-18T07:47:16.358Z,99589.84
2022-08-18T07:50:06.061Z,99584.19
2022-08-18T07:52:59.734Z,99572.56
2022-08-18T07:55:35.683Z,99582.84
2022-08-18T07:58:23.198Z,99564.50
2022-08-18T08:01:11.907Z,99563.69
2022-08-18T08:03:47.807Z,99569.38
2022-08-18T08:06:20.689Z,99572.63
2022-08-18T08:09:36.873Z,99566.16
2022-08-18T08:12:42.214Z,99571.53
2022-08-18T08:15:30.786Z,99567.78
2022-08-18T08:18:03.247Z,99558.31
2022-08-18T08:20:39.512Z,99552.91
2022-08-18T08:23:29.435Z,99561.03
2022-08-18T08:25:59.349Z,99560.50
2022-08-18T08:28:26.146Z,99559.16
2022-08-18T08:31:35.566Z,99561.88
2022-08-18T08:34:42.096Z,99554.03
2022-08-18T08:37:16.931Z,99554.06
2022-08-18T08:39:50.545Z,99552.69
2022-08-18T08:42:40.463Z,99560.28
2022-08-18T08:45:15.754Z,99552.16
2022-08-18T08:48:08.091Z,99551.63
2022-08-18T08:50:41.798Z,99538.91
2022-08-18T08:53:19.878Z,99539.44
2022-08-18T08:55:51.371Z,99529.16
2022-08-18T08:58:26.516Z,99522.94
2022-08-18T09:00:54.426Z,99531.84
2022-08-18T09:03:30.722Z,99521.31
2022-08-18T09:06:03.896Z,99521.06
2022-08-18T09:08:36.878Z,99521.56
2022-08-18T09:11:32.907Z,99515.53
2022-08-18T09:14:14.892Z,99514.53
2022-08-18T09:16:59.518Z,99522.13
2022-08-18T09:19:48.131Z,99508.56
2022-08-18T09:22:20.633Z,99490.16
2022-08-18T09:24:52.942Z,99485.31
2022-08-18T09:28:07.179Z,99482.63
2022-08-18T09:30:42.529Z,99480.97
2022-08-18T09:33:19.873Z,99483.41
2022-08-18T09:35:58.244Z,99476.38
2022-08-18T09:38:46.196Z,99476.38
2022-08-18T09:41:34.280Z,99473.38
2022-08-18T09:46:59.043Z,99462.25
2022-08-18T09:49:26.490Z,99453.91
2022-08-18T09:51:57.268Z,99442.75
2022-08-18T09:54:27.552Z,99439.25
2022-08-18T09:57:20.712Z,99429.25
2022-08-18T09:59:50.535Z,99439.53
2022-08-18T10:02:29.285Z,99445.75
2022-08-18T10:05:15.287Z,99431.97
2022-08-18T10:07:44.253Z,99424.94
2022-08-18T10:10:58.668Z,99418.47
2022-08-18T10:12:59.718Z,99402.72
2022-08-18T10:15:37.133Z,99395.13
2022-08-18T10:18:42.588Z,99389.72
2022-08-18T10:26:59.178Z,99389.22
2022-08-18T10:29:29.037Z,99382.91
2022-08-18T10:32:05.371Z,99403.91
2022-08-18T10:34:39.708Z,99407.13
2022-08-18T10:37:31.052Z,99404.47
2022-08-18T10:40:13.592Z,99404.34
2022-08-18T10:42:41.776Z,99389.03
2022-08-18T10:48:16.727Z,99398.94
2022-08-18T10:51:02.555Z,99395.28
2022-08-18T10:53:39.605Z,99391.78
2022-08-18T10:56:26.577Z,99389.28
2022-08-18T10:59:28.678Z,99385.66
2022-08-18T11:02:10.980Z,99380.22
2022-08-18T11:04:43.361Z,99373.19
2022-08-18T11:07:19.566Z,99362.84
2022-08-18T11:10:04.490Z,99356.59
2022-08-18T11:13:07.653Z,99354.75
2022-08-18T11:15:56.671Z,99360.28
2022-08-18T11:18:52.826Z,99369.81
2022-08-18T11:21:42.288Z,99362.19
2022-08-18T11:24:17.748Z,99367.06
2022-08-18T11:26:55.847Z,99368.91
2022-08-18T11:29:28.334Z,99376.25
2022-08-18T11:32:06.494Z,99363.50
2022-08-18T11:34:51.875Z,99362.75
2022-08-18T11:37:25.627Z,99353.38
2022-08-18T11:39:54.808Z,99354.34
2022-08-18T11:42:30.453Z,99351.19
2022-08-18T11:45:23.328Z,99350.38
2022-08-18T11:48:11.916Z,99348.50
2022-08-18T11:51:03.709Z,99342.22
2022-08-18T11:53:55.613Z,99341.72
2022-08-18T11:56:36.099Z,99339.09
2022-08-18T11:59:54.472Z,99336.31
2022-08-18T12:05:27.813Z,99329.28
2022-08-18T12:07:57.883Z,99329.06
2022-08-18T12:10:29.055Z,99324.03
2022-08-18T12:13:00.815Z,99324.56
2022-08-18T12:15:46.864Z,99327.91
2022-08-18T12:18:26.089Z,99316.69
2022-08-18T12:23:49.651Z,99320.53
2022-08-18T12:26:38.685Z,99317.06
2022-08-18T12:29:08.897Z,99317.06
2022-08-18T12:31:42.781Z,99314.53
2022-08-18T12:34:17.784Z,99310.53
2022-08-18T12:36:52.660Z,99299.19
2022-08-18T12:39:19.451Z,99305.75
2022-08-18T12:41:47.823Z,99293.88
2022-08-18T12:44:15.285Z,99303.63
2022-08-18T12:46:45.262Z,99303.69
2022-08-18T12:49:17.415Z,99303.97
2022-08-18T12:51:45.191Z,99308.44
2022-08-18T12:54:20.044Z,99304.63
2022-08-18T12:56:51.720Z,99307.66
2022-08-18T12:59:18.992Z,99308.41
2022-08-18T13:01:46.670Z,99303.31
2022-08-18T13:04:15.607Z,99302.78
2022-08-18T13:07:00.390Z,99300.44
2022-08-18T13:09:41.547Z,99292.59
2022-08-18T13:12:19.226Z,99293.91
2022-08-18T13:14:47.372Z,99290.63
2022-08-18T13:17:29.528Z,99290.50
2022-08-18T13:20:10.530Z,99288.97
2022-08-18T13:22:43.415Z,99292.97
2022-08-18T13:25:32.293Z,99276.38
2022-08-18T13:28:02.093Z,99283.28
2022-08-18T13:30:32.078Z,99280.66
2022-08-18T13:33:05.871Z,99286.13
2022-08-18T13:35:54.093Z,99283.34
2022-08-18T13:38:27.427Z,99284.34
2022-08-18T13:40:58.034Z,99281.38
2022-08-18T13:43:31.197Z,99274.78
2022-08-18T13:45:58.375Z,99267.59
2022-08-18T13:48:25.948Z,99275.72
2022-08-18T13:50:55.799Z,99274.34
2022-08-18T13:53:24.608Z,99274.63
2022-08-18T13:55:52.296Z,99264.88
2022-08-18T13:58:20.747Z,99268.69
2022-08-18T14:00:53.974Z,99269.88
2022-08-18T14:03:38.514Z,99261.00
2022-08-18T14:06:13.118Z,99253.38
2022-08-18T14:08:41.327Z,99254.38
2022-08-18T14:11:09.676Z,99250.41
2022-08-18T14:13:38.089Z,99254.66
2022-08-18T14:16:11.255Z,99240.72
2022-08-18T14:19:09.759Z,99238.00
2022-08-18T14:22:33.865Z,99247.66
2022-08-18T14:25:22.369Z,99234.19
2022-08-18T14:27:56.498Z,99236.25
2022-08-18T14:30:24.206Z,99236.63
2022-08-18T14:32:53.468Z,99238.31
2022-08-18T14:36:04.264Z,99243.53
2022-08-18T14:38:09.987Z,99240.75
2022-08-18T14:40:43.015Z,99239.03
2022-08-18T14:43:12.009Z,99232.19
2022-08-18T14:45:47.464Z,99237.38
2022-08-18T14:48:18.781Z,99232.91
2022-08-18T14:50:49.375Z,99224.31
2022-08-18T14:53:20.220Z,99214.97
2022-08-18T14:55:52.557Z,99202.91
2022-08-18T14:58:21.494Z,99206.81
2022-08-18T15:00:54.145Z,99205.38
2022-08-18T15:03:31.092Z,99193.09
2022-08-18T15:06:00.544Z,99195.78
2022-08-18T15:08:28.100Z,99193.34
2022-08-18T15:10:57.219Z,99188.72
2022-08-18T15:13:26.521Z,99185.50
2022-08-18T15:15:55.927Z,99178.25
2022-08-18T15:18:29.501Z,99171.69
2022-08-18T15:21:35.102Z,99164.34
2022-08-18T15:24:24.254Z,99158.91
2022-08-18T15:26:58.011Z,99171.06
2022-08-18T15:29:28.037Z,99165.22
2022-08-18T15:32:00.167Z,99157.63
2022-08-18T15:34:33.459Z,99158.22
2022-08-18T15:37:19.605Z,99159.44
2022-08-18T15:39:55.502Z,99167.84
2022-08-18T15:42:23.818Z,99162.28
2022-08-18T15:44:52.611Z,99154.13
2022-08-18T15:47:20.904Z,99152.19
2022-08-18T15:49:48.466Z,99143.88
2022-08-18T15:52:17.673Z,99149.59
2022-08-18T15:54:50.397Z,99141.59
2022-08-18T15:57:39.806Z,99138.53
2022-08-18T16:00:06.007Z,99140.59
2022-08-18T16:02:39.280Z,99131.75
2022-08-18T16:05:10.501Z,99132.78
2022-08-18T16:07:45.052Z,99139.84
2022-08-18T17:42:13.563Z,99059.78
2022-08-18T17:44:46.227Z,99058.09
2022-08-18T17:47:50.300Z,99053.28
2022-08-18T17:51:19.237Z,99050.03
2022-08-18T17:53:46.670Z,99056.47
2022-08-18T17:56:35.421Z,99058.09
2022-08-18T17:59:46.482Z,99048.56
2022-08-18T18:02:30.332Z,99048.28
2022-08-18T18:05:09.647Z,99050.19
2022-08-18T18:07:55.097Z,99049.19
2022-08-18T18:10:27.612Z,99048.19
2022-08-18T18:13:12.118Z,99047.22
2022-08-18T18:15:42.749Z,99043.06
2022-08-18T18:18:32.277Z,99044.13
2022-08-18T18:21:06.242Z,99042.16
2022-08-18T18:23:41.195Z,99041.06
2022-08-18T18:26:28.754Z,99041.19
2022-08-18T18:29:15.771Z,99046.94
2022-08-18T18:31:58.702Z,99044.28
2022-08-18T18:34:30.740Z,99036.75
2022-08-18T18:36:59.466Z,99040.25
2022-08-18T18:39:38.141Z,99046.41
2022-08-18T18:42:21.379Z,99051.75
2022-08-18T18:44:54.444Z,99049.81
2022-08-18T18:47:47.393Z,99058.47
2022-08-18T18:50:18.506Z,99060.59
2022-08-18T18:53:09.184Z,99058.72
2022-08-18T18:55:47.611Z,99054.88
2022-08-18T18:58:51.806Z,99056.22
2022-08-18T19:01:38.600Z,99053.00
2022-08-18T19:04:24.731Z,99041.06
2022-08-18T19:06:55.991Z,99050.34
2022-08-18T19:09:38.868Z,99036.28
2022-08-18T19:12:20.572Z,99049.09
2022-08-18T19:14:59.561Z,99052.34
2022-08-18T19:17:38.690Z,99049.25
2022-08-18T19:20:13.036Z,99052.78
2022-08-18T19:23:05.762Z,99050.19
2022-08-18T19:25:35.568Z,99047.69
2022-08-18T19:28:09.630Z,99051.09
2022-08-18T19:30:40.692Z,99055.91
2022-08-18T19:33:10.792Z,99046.56
2022-08-18T19:36:04.045Z,99041.84
2022-08-18T19:39:26.420Z,99040.66
2022-08-18T19:42:16.696Z,99045.56
2022-08-18T19:45:16.279Z,99047.34
2022-08-18T19:48:05.747Z,99050.00
2022-08-18T19:50:42.663Z,99049.56
2022-08-18T19:53:27.674Z,99050.38
2022-08-18T19:56:10.284Z,99028.56
2022-08-18T19:58:58.890Z,99022.22
2022-08-18T20:01:52.437Z,99014.75
2022-08-18T20:04:25.513Z,99022.22
2022-08-18T20:07:15.892Z,99012.47
2022-08-18T20:09:54.870Z,99014.56
2022-08-18T20:13:06.513Z,99004.91
2022-08-18T20:15:33.593Z,99001.28
2022-08-18T20:18:17.177Z,99001.28
2022-08-18T20:21:15.779Z,99006.72
2022-08-18T20:24:02.513Z,99006.50
2022-08-18T20:26:38.266Z,98997.97
2022-08-18T20:29:13.042Z,98992.03
2022-08-18T20:31:57.867Z,98990.03
2022-08-18T20:34:30.306Z,98990.50
2022-08-18T20:36:59.152Z,98985.19
2022-08-18T20:39:42.789Z,98980.88
2022-08-18T20:42:21.623Z,98981.56
2022-08-18T20:44:48.407Z,98976.03
2022-08-18T20:47:18.284Z,98961.97
2022-08-18T20:50:33.908Z,98951.22
2022-08-18T20:53:50.462Z,98944.19
2022-08-18T20:56:32.632Z,98987.16
2022-08-18T20:59:36.422Z,98996.66
2022-08-18T21:02:08.000Z,98997.66
2022-08-18T21:04:49.834Z,98999.19
2022-08-18T21:07:36.433Z,98997.44
2022-08-18T21:10:19.611Z,98995.47
2022-08-18T21:12:52.401Z,98980.50
2022-08-18T21:15:24.316Z,98971.72
2022-08-18T21:18:16.693Z,98980.72
2022-08-18T21:20:47.187Z,98973.16
2022-08-18T21:23:14.658Z,98977.88
2022-08-18T21:25:57.998Z,98975.25
2022-08-18T21:28:27.593Z,98971.22
2022-08-18T21:31:29.200Z,98965.50
2022-08-18T21:34:04.697Z,98964.91
2022-08-18T21:36:32.516Z,98953.19
2022-08-18T21:39:09.885Z,98955.88
2022-08-18T21:41:49.182Z,98958.66
2022-08-18T21:44:29.216Z,98953.94
2022-08-18T21:47:24.842Z,98937.38
2022-08-18T21:50:11.054Z,98934.44
2022-08-18T21:52:40.494Z,98929.91
2022-08-18T21:55:51.490Z,98928.69
2022-08-18T21:58:40.431Z,98921.53
2022-08-18T22:01:10.318Z,98912.00
2022-08-18T22:03:50.064Z,98918.53
2022-08-18T22:06:40.865Z,98917.06
2022-08-18T22:09:29.053Z,98911.78
2022-08-18T22:12:51.406Z,98920.72
2022-08-18T22:15:27.087Z,98914.00
2022-08-18T22:17:53.920Z,98933.72
2022-08-18T22:20:54.766Z,98932.47
2022-08-18T22:23:56.417Z,98948.41
2022-08-18T22:26:27.685Z,98953.38
2022-08-18T22:29:04.713Z,98957.28
2022-08-18T22:31:40.808Z,98955.25
2022-08-18T22:34:28.092Z,98956.84
2022-08-18T22:37:13.665Z,98964.56
2022-08-18T22:39:51.150Z,98961.06
2022-08-18T22:42:20.750Z,98959.06
2022-08-18T22:44:47.821Z,98961.56
2022-08-18T22:47:15.141Z,98962.31
2022-08-18T22:49:45.242Z,98968.03
2022-08-18T22:52:19.564Z,98972.13
2022-08-18T22:54:46.691Z,98976.28
2022-08-18T22:57:17.941Z,98985.88
2022-08-18T22:59:50.697Z,98981.34
2022-08-18T23:02:21.884Z,98988.94
2022-08-18T23:04:49.295Z,98984.41
2022-08-18T23:07:16.073Z,98991.47
2022-08-18T23:09:42.941Z,98989.97
2022-08-18T23:12:13.722Z,98989.28
2022-08-18T23:14:44.455Z,98989.28
2022-08-18T23:17:11.686Z,98989.03
2022-08-18T23:19:40.704Z,98994.97
2022-08-18T23:22:11.477Z,98997.72
2022-08-18T23:24:39.260Z,99013.69
2022-08-18T23:27:06.821Z,99008.00
2022-08-18T23:29:36.740Z,98991.28
2022-08-18T23:32:07.635Z,99008.41
2022-08-18T23:34:34.992Z,98996.19
2022-08-18T23:37:03.839Z,99018.13
2022-08-18T23:39:32.555Z,99007.44
2022-08-18T23:42:00.674Z,99024.91
2022-08-18T23:44:28.138Z,99031.75
2022-08-18T23:46:56.611Z,99028.50
2022-08-18T23:49:24.337Z,99033.84
2022-08-18T23:51:54.602Z,99039.28
2022-08-18T23:54:24.520Z,99041.00
2022-08-18T23:56:51.393Z,99048.22
2022-08-18T23:59:19.830Z,99059.34
